Time;durP1;ratioP1;P1;durP2;ratioP2;P2;SDS_P1;SDS_P2;PMS_P1;PMS_P2;Temp;Humidity;BMP_temperature;BMP_pressure;BME280_temperature;BME280_humidity;BME280_pressure;Samples;Min_cycle;Max_cycle;Signal;HPM_P1;HPM_P2
2022/10/02 00:01:10;;;;;;;12.77;3.47;;;;;;;;;;5052557;28;20094;-67
2022/10/02 00:03:38;;;;;;;14.35;3.97;;;;;;;;;;5046697;28;20400;-67
2022/10/02 00:06:09;;;;;;;17.67;4.05;;;;;;;;;;5048395;28;20044;-67
2022/10/02 00:08:40;;;;;;;15.02;3.92;;;;;;;;;;5044669;28;20037;-67
2022/10/02 00:11:14;;;;;;;11.98;3.33;;;;;;;;;;5049307;28;20048;-67
2022/10/02 00:13:52;;;;;;;14.88;3.85;;;;;;;;;;5048572;28;20044;-67
2022/10/02 00:16:28;;;;;;;15.13;3.38;;;;;;;;;;5051980;28;20119;-67
2022/10/02 00:18:55;;;;;;;11.77;3.35;;;;;;;;;;5040011;28;20111;-67
2022/10/02 00:21:30;;;;;;;12.05;3.55;;;;;;;;;;5047045;28;20098;-67
2022/10/02 00:23:58;;;;;;;11.02;3.50;;;;;;;;;;5045342;28;20039;-67
2022/10/02 00:26:27;;;;;;;13.18;2.83;;;;;;;;;;5050060;28;20126;-67
2022/10/02 00:29:02;;;;;;;16.75;3.35;;;;;;;;;;5051647;28;20144;-67
2022/10/02 00:31:37;;;;;;;15.40;3.95;;;;;;;;;;5051962;28;20072;-67
2022/10/02 00:34:06;;;;;;;13.10;3.03;;;;;;;;;;5050715;28;20037;-67
2022/10/02 00:36:44;;;;;;;13.02;3.60;;;;;;;;;;5044224;28;20045;-67
2022/10/02 00:39:29;;;;;;;13.75;3.95;;;;;;;;;;5051885;28;20053;-67
2022/10/02 00:41:54;;;;;;;14.38;3.30;;;;;;;;;;5044766;28;20041;-67
2022/10/02 00:44:23;;;;;;;14.80;3.17;;;;;;;;;;5051021;28;20105;-67
2022/10/02 00:46:54;;;;;;;15.75;3.17;;;;;;;;;;5051319;28;20123;-67
2022/10/02 00:49:39;;;;;;;15.95;3.55;;;;;;;;;;5050727;28;20478;-67
2022/10/02 00:52:22;;;;;;;12.77;3.13;;;;;;;;;;5052096;28;20072;-67
2022/10/02 00:54:57;;;;;;;14.02;3.95;;;;;;;;;;5050873;28;20045;-66
2022/10/02 00:57:28;;;;;;;11.27;3.03;;;;;;;;;;5041347;28;20037;-67
2022/10/02 01:00:08;;;;;;;8.68;3.47;;;;;;;;;;5043189;28;20106;-67
2022/10/02 01:02:43;;;;;;;12.05;3.42;;;;;;;;;;5043673;28;20124;-67
2022/10/02 01:05:10;;;;;;;13.38;3.28;;;;;;;;;;5050129;28;20037;-67
2022/10/02 01:07:41;;;;;;;11.55;3.30;;;;;;;;;;5052186;28;20123;-67
2022/10/02 01:10:08;;;;;;;15.35;3.53;;;;;;;;;;5048641;28;20048;-67
2022/10/02 01:12:34;;;;;;;13.43;3.03;;;;;;;;;;5049566;28;20045;-67
2022/10/02 01:15:00;;;;;;;15.68;3.63;;;;;;;;;;5050381;28;20101;-67
2022/10/02 01:17:31;;;;;;;10.85;3.80;;;;;;;;;;5050622;28;20561;-67
2022/10/02 01:19:59;;;;;;;20.15;3.67;;;;;;;;;;5051359;28;20107;-67
2022/10/02 01:22:30;;;;;;;14.13;3.60;;;;;;;;;;5049952;28;20053;-67
2022/10/02 01:24:57;;;;;;;15.63;3.55;;;;;;;;;;5048906;28;20064;-67
2022/10/02 01:27:24;;;;;;;13.30;3.17;;;;;;;;;;5044601;28;20036;-67
2022/10/02 01:29:54;;;;;;;10.65;3.20;;;;;;;;;;5047456;28;20049;-67
2022/10/02 01:32:20;;;;;;;12.70;3.28;;;;;;;;;;5050572;28;20068;-67
2022/10/02 01:34:47;;;;;;;16.95;3.28;;;;;;;;;;5050552;28;20037;-67
2022/10/02 01:37:13;;;;;;;14.63;3.40;;;;;;;;;;5051584;28;20033;-67
2022/10/02 01:39:39;;;;;;;15.85;3.70;;;;;;;;;;5048997;28;20043;-67
2022/10/02 01:42:05;;;;;;;15.93;3.20;;;;;;;;;;5050420;28;20040;-66
2022/10/02 01:44:32;;;;;;;11.90;3.38;;;;;;;;;;5064041;28;20123;-67
2022/10/02 01:47:07;;;;;;;12.73;3.47;;;;;;;;;;5051615;28;20041;-67
2022/10/02 01:49:33;;;;;;;15.70;3.42;;;;;;;;;;5045800;28;20052;-67
2022/10/02 01:52:07;;;;;;;12.43;3.30;;;;;;;;;;5049660;28;20171;-67
2022/10/02 01:54:40;;;;;;;15.77;3.13;;;;;;;;;;5041918;28;20045;-67
2022/10/02 01:57:15;;;;;;;16.52;3.30;;;;;;;;;;5050722;28;20041;-67
2022/10/02 01:59:58;;;;;;;10.63;3.25;;;;;;;;;;5050871;28;20037;-67
2022/10/02 02:02:24;;;;;;;14.60;3.22;;;;;;;;;;5041545;28;20033;-67
2022/10/02 02:05:03;;;;;;;12.63;3.35;;;;;;;;;;5045120;28;20037;-67
2022/10/02 02:07:34;;;;;;;13.85;3.00;;;;;;;;;;5049000;28;20041;-67
2022/10/02 02:10:12;;;;;;;11.13;3.00;;;;;;;;;;5041422;28;20082;-67
2022/10/02 02:12:38;;;;;;;17.08;3.33;;;;;;;;;;5031392;28;20099;-67
2022/10/02 02:15:07;;;;;;;10.45;2.72;;;;;;;;;;5049007;28;20040;-67
2022/10/02 02:17:37;;;;;;;11.25;3.00;;;;;;;;;;5040531;28;20047;-67
2022/10/02 02:20:13;;;;;;;15.37;3.27;;;;;;;;;;5049292;28;20137;-68
2022/10/02 02:22:43;;;;;;;13.05;2.92;;;;;;;;;;5060374;22;20072;-67
2022/10/02 02:25:13;;;;;;;15.55;3.47;;;;;;;;;;5035007;28;20068;-66
2022/10/02 02:27:41;;;;;;;13.55;3.10;;;;;;;;;;5054747;28;20490;-66
2022/10/02 02:30:10;;;;;;;13.60;3.03;;;;;;;;;;5054373;28;20398;-66
2022/10/02 02:32:39;;;;;;;8.13;2.97;;;;;;;;;;5050166;28;20041;-67
2022/10/02 02:35:07;;;;;;;13.18;3.35;;;;;;;;;;5034451;28;20042;-66
2022/10/02 02:37:35;;;;;;;11.25;3.35;;;;;;;;;;5046692;28;20048;-66
2022/10/02 02:40:05;;;;;;;14.60;3.22;;;;;;;;;;5045975;28;20088;-66
2022/10/02 02:42:33;;;;;;;12.07;2.90;;;;;;;;;;5032489;28;20073;-66
2022/10/02 02:45:18;;;;;;;16.70;3.10;;;;;;;;;;5029069;28;20046;-66
2022/10/02 02:47:51;;;;;;;15.82;3.22;;;;;;;;;;5041148;28;20435;-66
2022/10/02 02:50:17;;;;;;;12.85;3.40;;;;;;;;;;5035838;28;20073;-65
2022/10/02 02:52:56;;;;;;;17.30;3.30;;;;;;;;;;5042470;28;20518;-65
2022/10/02 02:55:23;;;;;;;16.65;3.20;;;;;;;;;;5026638;28;20510;-65
2022/10/02 02:57:49;;;;;;;13.25;2.97;;;;;;;;;;5034665;28;20045;-65
2022/10/02 03:00:16;;;;;;;16.27;2.88;;;;;;;;;;5034002;28;20052;-65
2022/10/02 03:02:42;;;;;;;17.98;3.28;;;;;;;;;;5037479;28;20438;-64
2022/10/02 03:05:18;;;;;;;13.43;2.80;;;;;;;;;;5024346;28;20038;-65
2022/10/02 03:08:04;;;;;;;9.50;2.90;;;;;;;;;;5034166;28;20399;-66
2022/10/02 03:10:45;;;;;;;14.00;3.22;;;;;;;;;;5015852;28;20045;-66
2022/10/02 03:13:23;;;;;;;9.77;2.60;;;;;;;;;;5027817;28;20030;-66
2022/10/02 03:15:49;;;;;;;12.73;2.85;;;;;;;;;;5032318;28;20045;-66
2022/10/02 03:18:34;;;;;;;12.75;2.70;;;;;;;;;;5037432;28;20080;-66
2022/10/02 03:21:10;;;;;;;9.65;2.67;;;;;;;;;;5038029;28;20037;-66
2022/10/02 03:23:43;;;;;;;10.80;2.78;;;;;;;;;;5029159;28;20073;-66
2022/10/02 03:26:13;;;;;;;13.80;2.50;;;;;;;;;;5007844;28;20080;-66
2022/10/02 03:29:05;;;;;;;16.45;2.78;;;;;;;;;;5032804;28;20057;-66
2022/10/02 03:31:32;;;;;;;10.18;2.67;;;;;;;;;;5034509;28;20046;-66
2022/10/02 03:33:59;;;;;;;12.52;2.72;;;;;;;;;;5031665;28;20368;-66
2022/10/02 03:36:25;;;;;;;10.40;2.70;;;;;;;;;;5033850;28;20037;-66
2022/10/02 03:38:53;;;;;;;10.68;2.75;;;;;;;;;;5015641;28;20076;-66
2022/10/02 03:41:19;;;;;;;10.20;2.20;;;;;;;;;;5032687;28;20099;-66
2022/10/02 03:43:45;;;;;;;10.45;2.50;;;;;;;;;;5024139;28;20038;-66
2022/10/02 03:46:11;;;;;;;10.10;3.28;;;;;;;;;;4998173;28;20484;-66
2022/10/02 03:48:37;;;;;;;9.15;2.38;;;;;;;;;;5041170;28;20454;-66
2022/10/02 03:51:03;;;;;;;8.60;2.53;;;;;;;;;;5033009;28;20034;-66
2022/10/02 03:53:31;;;;;;;11.35;2.90;;;;;;;;;;5026894;28;20037;-66
2022/10/02 03:56:03;;;;;;;8.15;2.42;;;;;;;;;;5025875;28;20453;-66
2022/10/02 03:58:29;;;;;;;7.88;2.17;;;;;;;;;;5031092;28;20499;-65
2022/10/02 04:01:04;;;;;;;7.20;1.67;;;;;;;;;;5030660;28;20045;-66
2022/10/02 04:03:35;;;;;;;9.18;2.35;;;;;;;;;;5030854;28;20037;-66
2022/10/02 04:06:01;;;;;;;;;;;;;;;;;;5038511;28;20406;-66
2022/10/02 04:08:27;;;;;;;7.13;2.10;;;;;;;;;;5033021;28;19925;-66
2022/10/02 04:11:03;;;;;;;9.30;2.25;;;;;;;;;;5032659;28;20057;-66
2022/10/02 04:13:29;;;;;;;10.90;2.03;;;;;;;;;;5025892;28;20556;-66
2022/10/02 04:15:58;;;;;;;7.97;2.10;;;;;;;;;;5009093;28;20221;-66
2022/10/02 04:18:27;;;;;;;13.73;2.40;;;;;;;;;;5041175;28;20044;-66
2022/10/02 04:21:01;;;;;;;9.55;2.00;;;;;;;;;;5052298;28;20049;-67
2022/10/02 04:23:33;;;;;;;10.85;2.60;;;;;;;;;;5016158;28;20045;-66
2022/10/02 04:26:25;;;;;;;10.93;2.05;;;;;;;;;;5030239;28;20495;-67
2022/10/02 04:28:55;;;;;;;11.48;2.70;;;;;;;;;;5021584;28;20131;-66
2022/10/02 04:31:26;;;;;;;11.70;2.60;;;;;;;;;;5031924;28;20087;-66
2022/10/02 04:33:52;;;;;;;12.63;2.60;;;;;;;;;;5028390;28;20052;-67
2022/10/02 04:36:29;;;;;;;10.85;2.47;;;;;;;;;;5028469;28;20034;-66
2022/10/02 04:38:55;;;;;;;12.35;2.83;;;;;;;;;;5031838;28;20052;-67
2022/10/02 04:41:30;;;;;;;9.95;2.10;;;;;;;;;;5036398;28;20421;-66
2022/10/02 04:44:14;;;;;;;9.85;2.63;;;;;;;;;;5029246;28;20115;-67
2022/10/02 04:46:59;;;;;;;8.85;2.40;;;;;;;;;;5035096;28;20380;-67
2022/10/02 04:49:47;;;;;;;10.90;3.22;;;;;;;;;;5032054;28;20073;-66
2022/10/02 04:52:22;;;;;;;14.02;2.80;;;;;;;;;;5013189;28;20124;-67
2022/10/02 04:54:58;;;;;;;12.20;2.97;;;;;;;;;;5025500;28;20038;-66
2022/10/02 04:57:34;;;;;;;14.93;2.55;;;;;;;;;;5033769;28;20056;-66
2022/10/02 05:00:07;;;;;;;14.13;2.92;;;;;;;;;;5051836;28;20048;-67
2022/10/02 05:02:33;;;;;;;11.13;2.30;;;;;;;;;;5051779;28;20083;-66
2022/10/02 05:05:17;;;;;;;11.18;2.65;;;;;;;;;;5028334;28;20061;-67
2022/10/02 05:07:45;;;;;;;9.88;2.67;;;;;;;;;;5025303;28;20044;-66
2022/10/02 05:10:44;;;;;;;13.27;2.92;;;;;;;;;;5036858;28;20041;-66
2022/10/02 05:13:26;;;;;;;14.55;3.53;;;;;;;;;;4967362;28;20080;-67
2022/10/02 05:16:11;;;;;;;11.20;3.20;;;;;;;;;;5041026;28;20069;-65
2022/10/02 05:18:55;;;;;;;9.40;3.00;;;;;;;;;;5023894;28;20044;-66
2022/10/02 05:21:27;;;;;;;13.90;3.03;;;;;;;;;;5031181;28;20403;-67
2022/10/02 05:24:17;;;;;;;17.45;3.28;;;;;;;;;;5026777;28;20142;-67
2022/10/02 05:26:59;;;;;;;11.05;2.92;;;;;;;;;;5027801;28;20102;-67
2022/10/02 05:29:34;;;;;;;13.88;3.33;;;;;;;;;;5011934;28;20408;-66
2022/10/02 05:32:19;;;;;;;14.13;3.30;;;;;;;;;;5031369;28;20036;-67
2022/10/02 05:35:01;;;;;;;16.20;3.13;;;;;;;;;;5024681;28;20045;-66
2022/10/02 05:37:43;;;;;;;9.05;3.08;;;;;;;;;;5025701;28;20157;-67
2022/10/02 05:40:15;;;;;;;10.00;3.38;;;;;;;;;;5036408;28;20472;-67
2022/10/02 05:42:48;;;;;;;12.13;3.08;;;;;;;;;;5041038;28;20045;-66
2022/10/02 05:45:30;;;;;;;17.20;3.42;;;;;;;;;;5042343;28;20041;-67
2022/10/02 05:48:03;;;;;;;17.70;3.53;;;;;;;;;;5032397;28;20041;-66
2022/10/02 05:50:33;;;;;;;14.23;3.10;;;;;;;;;;5030951;28;20045;-67
2022/10/02 05:53:02;;;;;;;19.13;3.15;;;;;;;;;;5031965;28;20127;-66
2022/10/02 05:55:28;;;;;;;16.42;3.50;;;;;;;;;;5020675;28;20058;-67
2022/10/02 05:57:57;;;;;;;10.25;3.13;;;;;;;;;;5020251;28;20030;-67
2022/10/02 06:00:37;;;;;;;15.07;3.60;;;;;;;;;;5021358;28;20038;-67
2022/10/02 06:03:22;;;;;;;13.82;3.05;;;;;;;;;;5019789;28;20563;-66
2022/10/02 06:05:56;;;;;;;15.60;3.38;;;;;;;;;;5039665;28;20060;-66
2022/10/02 06:08:30;;;;;;;12.77;3.25;;;;;;;;;;5008110;28;20041;-66
2022/10/02 06:10:59;;;;;;;13.05;3.17;;;;;;;;;;5027190;28;20030;-66
2022/10/02 06:13:28;;;;;;;17.02;3.47;;;;;;;;;;5032016;28;20038;-67
2022/10/02 06:16:14;;;;;;;10.38;3.13;;;;;;;;;;5055387;28;20115;-66
2022/10/02 06:18:43;;;;;;;18.60;3.72;;;;;;;;;;5026085;28;20479;-66
2022/10/02 06:21:12;;;;;;;17.23;2.95;;;;;;;;;;5043042;28;20057;-67
2022/10/02 06:23:49;;;;;;;16.45;3.30;;;;;;;;;;5030795;28;20033;-67
2022/10/02 06:26:33;;;;;;;15.63;3.50;;;;;;;;;;5021149;28;20068;-67
2022/10/02 06:29:04;;;;;;;19.83;3.42;;;;;;;;;;5045434;28;20402;-66
2022/10/02 06:31:36;;;;;;;14.88;3.08;;;;;;;;;;5035233;28;20041;-67
2022/10/02 06:34:02;;;;;;;17.02;3.30;;;;;;;;;;5028496;28;20048;-67
2022/10/02 06:36:40;;;;;;;16.20;3.40;;;;;;;;;;5019881;28;20042;-66
2022/10/02 06:39:06;;;;;;;11.80;2.83;;;;;;;;;;5026908;28;20052;-67
2022/10/02 06:41:53;;;;;;;13.80;3.22;;;;;;;;;;5020944;28;20041;-67
2022/10/02 06:44:22;;;;;;;15.13;3.63;;;;;;;;;;5034037;28;20096;-66
2022/10/02 06:47:06;;;;;;;13.20;3.28;;;;;;;;;;5015695;28;20038;-67
2022/10/02 06:49:45;;;;;;;17.30;3.67;;;;;;;;;;5025750;28;20491;-67
2022/10/02 06:52:35;;;;;;;20.38;3.80;;;;;;;;;;5041636;28;20625;-67
2022/10/02 06:55:07;;;;;;;18.80;4.20;;;;;;;;;;5030695;28;20045;-66
2022/10/02 06:57:33;;;;;;;15.63;3.45;;;;;;;;;;5022277;28;20045;-67
2022/10/02 07:00:15;;;;;;;15.98;3.40;;;;;;;;;;5053570;28;20041;-66
2022/10/02 07:02:47;;;;;;;14.63;3.25;;;;;;;;;;5051119;28;20485;-67
2022/10/02 07:05:19;;;;;;;13.73;3.53;;;;;;;;;;5033564;28;20087;-67
2022/10/02 07:07:46;;;;;;;14.75;3.05;;;;;;;;;;5017001;28;20053;-67
2022/10/02 07:10:15;;;;;;;14.00;3.33;;;;;;;;;;5014001;28;20049;-66
2022/10/02 07:12:54;;;;;;;11.75;3.10;;;;;;;;;;5014140;28;20101;-67
2022/10/02 07:15:20;;;;;;;15.07;3.03;;;;;;;;;;5032741;28;20038;-66
2022/10/02 07:17:53;;;;;;;23.23;4.10;;;;;;;;;;5014452;28;20037;-66
2022/10/02 07:20:37;;;;;;;14.15;3.05;;;;;;;;;;5053595;28;20040;-66
2022/10/02 07:23:18;;;;;;;17.48;3.25;;;;;;;;;;5048265;28;20403;-67
2022/10/02 07:25:44;;;;;;;;;;;;;;;;;;5032846;28;20033;-67
2022/10/02 07:28:28;;;;;;;16.63;3.72;;;;;;;;;;5038205;28;19971;-66
2022/10/02 07:31:00;;;;;;;15.48;3.42;;;;;;;;;;5053684;28;20041;-67
2022/10/02 07:33:37;;;;;;;14.63;3.40;;;;;;;;;;5011881;28;20053;-66
2022/10/02 07:36:10;;;;;;;13.15;3.03;;;;;;;;;;5032388;28;20390;-68
2022/10/02 07:38:52;;;;;;;11.48;3.25;;;;;;;;;;5032966;28;20076;-67
2022/10/02 07:41:29;;;;;;;14.30;3.50;;;;;;;;;;5035406;28;20037;-67
2022/10/02 07:43:55;;;;;;;16.80;3.38;;;;;;;;;;5024012;28;20493;-66
2022/10/02 07:46:21;;;;;;;12.60;2.85;;;;;;;;;;5018842;28;20041;-66
2022/10/02 07:48:50;;;;;;;16.08;3.65;;;;;;;;;;5029683;28;20041;-66
2022/10/02 07:54:19;;;;;;;13.43;3.13;;;;;;;;;;5030447;28;20038;-66
2022/10/02 07:56:47;;;;;;;16.00;3.13;;;;;;;;;;5027193;28;20044;-66
2022/10/02 07:59:15;;;;;;;10.43;2.60;;;;;;;;;;5022787;28;20132;-67
2022/10/02 08:01:43;;;;;;;10.70;2.30;;;;;;;;;;5013375;28;20041;-66
2022/10/02 08:04:14;;;;;;;12.45;2.72;;;;;;;;;;5035560;28;20096;-66
2022/10/02 08:06:40;;;;;;;;;;;;;;;;;;5033410;28;20047;-66
2022/10/02 08:09:10;;;;;;;10.57;2.45;;;;;;;;;;5014612;28;19925;-66
2022/10/02 08:11:46;;;;;;;14.75;2.30;;;;;;;;;;5033335;28;20407;-66
2022/10/02 08:14:15;;;;;;;7.85;2.17;;;;;;;;;;5038956;28;20083;-67
2022/10/02 08:16:52;;;;;;;12.20;2.38;;;;;;;;;;5028378;28;20037;-67
2022/10/02 08:19:41;;;;;;;14.55;2.95;;;;;;;;;;5037722;28;20045;-67
2022/10/02 08:24:45;;;;;;;11.55;2.90;;;;;;;;;;5057098;28;20068;-68
2022/10/02 08:27:19;;;;;;;15.77;2.40;;;;;;;;;;5062294;28;20036;-67
2022/10/02 08:30:05;;;;;;;15.65;2.67;;;;;;;;;;5058561;28;20098;-67
2022/10/02 08:32:33;;;;;;;18.42;2.83;;;;;;;;;;5058102;28;20072;-68
2022/10/02 08:34:59;;;;;;;18.42;3.00;;;;;;;;;;5048928;28;20457;-69
2022/10/02 08:37:27;;;;;;;11.35;2.63;;;;;;;;;;5052048;28;20072;-68
2022/10/02 08:40:12;;;;;;;11.75;2.72;;;;;;;;;;5041196;28;20049;-69
2022/10/02 08:43:03;;;;;;;9.82;2.35;;;;;;;;;;5032386;28;20492;-69
2022/10/02 08:45:41;;;;;;;14.98;2.35;;;;;;;;;;5043374;28;20044;-69
2022/10/02 08:48:10;;;;;;;15.20;2.78;;;;;;;;;;5052578;28;20051;-68
2022/10/02 08:50:51;;;;;;;12.15;2.35;;;;;;;;;;5051980;28;20052;-68
2022/10/02 08:53:17;;;;;;;10.13;2.20;;;;;;;;;;5046805;28;20044;-68
2022/10/02 08:55:45;;;;;;;9.98;2.05;;;;;;;;;;5044680;28;20033;-68
2022/10/02 08:58:30;;;;;;;8.73;1.90;;;;;;;;;;5036329;28;20065;-68
2022/10/02 09:01:11;;;;;;;11.75;2.58;;;;;;;;;;5040335;28;20044;-68
2022/10/02 09:03:43;;;;;;;9.55;2.08;;;;;;;;;;5034109;28;20186;-68
2022/10/02 09:06:42;;;;;;;10.25;2.50;;;;;;;;;;5043853;28;20045;-68
2022/10/02 09:09:26;;;;;;;10.25;2.10;;;;;;;;;;5001629;28;20049;-66
2022/10/02 09:12:05;;;;;;;10.82;2.25;;;;;;;;;;5043056;28;20044;-68
2022/10/02 09:14:43;;;;;;;12.18;2.45;;;;;;;;;;5046083;28;20048;-69
2022/10/02 09:17:18;;;;;;;12.93;2.20;;;;;;;;;;5040213;28;20088;-69
2022/10/02 09:20:00;;;;;;;13.75;2.35;;;;;;;;;;5031155;28;20499;-68
2022/10/02 09:22:46;;;;;;;13.57;2.40;;;;;;;;;;5047028;28;20112;-69
2022/10/02 09:25:31;;;;;;;10.82;2.33;;;;;;;;;;5030357;28;20068;-69
2022/10/02 09:27:57;;;;;;;13.20;2.38;;;;;;;;;;5036262;28;20034;-68
2022/10/02 09:30:25;;;;;;;9.18;1.77;;;;;;;;;;5045404;28;20716;-68
2022/10/02 09:32:54;;;;;;;11.05;2.42;;;;;;;;;;5044759;28;20391;-68
2022/10/02 09:35:27;;;;;;;13.52;1.90;;;;;;;;;;5034033;28;20048;-69
2022/10/02 09:38:15;;;;;;;9.85;1.88;;;;;;;;;;5037243;28;20044;-68
2022/10/02 09:41:16;;;;;;;8.57;1.92;;;;;;;;;;5042269;28;20415;-69
2022/10/02 09:44:05;;;;;;;10.15;1.83;;;;;;;;;;4990324;28;20179;-69
2022/10/02 09:46:32;;;;;;;11.98;2.28;;;;;;;;;;5031415;28;20057;-69
2022/10/02 09:49:07;;;;;;;8.35;2.15;;;;;;;;;;5032458;28;20052;-69
2022/10/02 09:51:48;;;;;;;8.07;1.75;;;;;;;;;;5051231;28;20040;-68
2022/10/02 09:54:46;;;;;;;11.15;1.90;;;;;;;;;;5035054;28;20487;-69
2022/10/02 09:57:30;;;;;;;13.00;2.50;;;;;;;;;;5050083;28;20034;-68
2022/10/02 10:00:04;;;;;;;8.68;2.13;;;;;;;;;;5037087;28;20588;-68
2022/10/02 10:02:40;;;;;;;14.02;2.88;;;;;;;;;;5045178;28;20434;-68
2022/10/02 10:05:12;;;;;;;8.80;2.00;;;;;;;;;;5036418;28;20099;-68
2022/10/02 10:07:38;;;;;;;11.75;2.30;;;;;;;;;;5031629;28;20041;-69
2022/10/02 10:10:19;;;;;;;11.63;2.03;;;;;;;;;;5038447;28;20142;-70
2022/10/02 10:13:08;;;;;;;11.90;1.70;;;;;;;;;;5038820;28;20083;-69
2022/10/02 10:15:50;;;;;;;13.25;2.15;;;;;;;;;;5030989;28;20044;-68
2022/10/02 10:18:16;;;;;;;10.68;2.03;;;;;;;;;;5030794;28;20033;-69
2022/10/02 10:20:57;;;;;;;14.63;2.47;;;;;;;;;;5043152;28;20494;-69
2022/10/02 10:23:35;;;;;;;8.80;1.92;;;;;;;;;;5044853;28;20044;-68
2022/10/02 10:26:03;;;;;;;7.95;1.65;;;;;;;;;;5046565;28;20133;-68
2022/10/02 10:28:39;;;;;;;10.05;1.75;;;;;;;;;;5042376;28;20598;-68
2022/10/02 10:31:23;;;;;;;11.77;1.95;;;;;;;;;;5044291;28;20041;-68
2022/10/02 10:34:07;;;;;;;12.57;2.15;;;;;;;;;;5042941;28;20430;-68
2022/10/02 10:39:46;;;;;;;10.13;1.75;;;;;;;;;;4986430;28;20041;-68
2022/10/02 10:42:13;;;;;;;12.75;1.90;;;;;;;;;;5052946;28;20037;-67
2022/10/02 10:44:39;;;;;;;10.48;1.77;;;;;;;;;;5050580;28;20055;-68
2022/10/02 10:47:05;;;;;;;7.68;2.00;;;;;;;;;;5042585;28;20112;-68
2022/10/02 10:49:39;;;;;;;10.30;1.63;;;;;;;;;;5042683;28;20121;-68
2022/10/02 10:52:14;;;;;;;8.02;2.33;;;;;;;;;;5034359;28;20080;-68
2022/10/02 10:54:59;;;;;;;11.95;2.03;;;;;;;;;;5041832;28;20125;-68
2022/10/02 10:57:37;;;;;;;11.18;2.55;;;;;;;;;;5050811;28;20582;-68
2022/10/02 11:00:09;;;;;;;9.77;2.15;;;;;;;;;;5044207;28;20045;-68
2022/10/02 11:02:54;;;;;;;10.48;2.35;;;;;;;;;;5034435;28;20064;-68
2022/10/02 11:05:28;;;;;;;11.85;2.15;;;;;;;;;;5048762;28;20454;-68
2022/10/02 11:07:57;;;;;;;10.02;2.10;;;;;;;;;;5052526;28;20037;-68
2022/10/02 11:10:40;;;;;;;11.35;2.40;;;;;;;;;;5042364;28;20041;-68
2022/10/02 11:13:24;;;;;;;10.38;1.92;;;;;;;;;;5042088;28;20112;-68
2022/10/02 11:15:58;;;;;;;11.07;1.85;;;;;;;;;;5050803;28;20036;-68
2022/10/02 11:18:39;;;;;;;10.30;2.05;;;;;;;;;;5046584;28;20033;-67
2022/10/02 11:21:12;;;;;;;8.48;2.00;;;;;;;;;;5046462;28;20168;-68
2022/10/02 11:23:38;;;;;;;10.63;2.00;;;;;;;;;;5052477;28;20513;-68
2022/10/02 11:26:13;;;;;;;10.27;1.63;;;;;;;;;;5045826;28;20117;-68
2022/10/02 11:28:39;;;;;;;8.73;1.70;;;;;;;;;;5048179;28;20498;-68
2022/10/02 11:31:16;;;;;;;11.32;1.77;;;;;;;;;;5049351;28;20066;-68
2022/10/02 11:34:00;;;;;;;9.00;1.85;;;;;;;;;;5052030;28;20121;-68
2022/10/02 11:36:45;;;;;;;8.40;2.05;;;;;;;;;;5048510;28;20116;-68
2022/10/02 11:39:16;;;;;;;15.45;2.28;;;;;;;;;;5042001;28;20374;-68
2022/10/02 11:41:53;;;;;;;9.70;1.63;;;;;;;;;;5039674;28;20053;-68
2022/10/02 11:44:32;;;;;;;7.35;1.73;;;;;;;;;;5043312;28;20037;-68
2022/10/02 11:47:08;;;;;;;6.80;1.30;;;;;;;;;;5048670;28;20045;-69
2022/10/02 11:49:37;;;;;;;5.85;1.42;;;;;;;;;;5052865;28;20406;-68
2022/10/02 11:52:17;;;;;;;6.90;1.52;;;;;;;;;;5052748;28;20037;-67
2022/10/02 11:54:53;;;;;;;8.50;1.60;;;;;;;;;;5045099;28;20478;-67
2022/10/02 11:57:37;;;;;;;7.75;1.30;;;;;;;;;;5047481;28;20243;-68
2022/10/02 12:00:12;;;;;;;9.45;2.03;;;;;;;;;;5045353;28;20056;-68
2022/10/02 12:02:44;;;;;;;9.13;1.83;;;;;;;;;;5043682;28;20068;-68
2022/10/02 12:05:14;;;;;;;13.95;1.88;;;;;;;;;;5046921;28;20044;-68
2022/10/02 12:07:51;;;;;;;11.77;2.25;;;;;;;;;;5038215;28;20048;-68
2022/10/02 12:10:23;;;;;;;16.73;3.08;;;;;;;;;;5047199;28;20102;-68
2022/10/02 12:13:04;;;;;;;12.65;2.65;;;;;;;;;;5032120;28;20080;-68
2022/10/02 12:15:33;;;;;;;9.07;2.22;;;;;;;;;;5032693;28;20094;-68
2022/10/02 12:18:18;;;;;;;6.78;1.48;;;;;;;;;;5048166;28;20048;-68
2022/10/02 12:26:58;;;;;;;11.57;2.03;;;;;;;;;;5035339;28;20045;-68
2022/10/02 12:29:29;;;;;;;11.50;1.83;;;;;;;;;;5033041;28;20802;-68
2022/10/02 12:32:07;;;;;;;7.70;1.60;;;;;;;;;;5032153;28;20033;-68
2022/10/02 12:34:33;;;;;;;9.32;1.80;;;;;;;;;;5034454;28;20045;-69
2022/10/02 12:37:05;;;;;;;10.38;2.03;;;;;;;;;;5041914;28;20036;-68
2022/10/02 12:39:30;;;;;;;11.55;1.83;;;;;;;;;;5048078;28;20497;-68
2022/10/02 12:42:12;;;;;;;9.10;1.75;;;;;;;;;;5036016;28;20171;-69
2022/10/02 12:44:44;;;;;;;8.70;1.77;;;;;;;;;;5032922;28;20055;-69
2022/10/02 12:47:29;;;;;;;9.25;1.50;;;;;;;;;;5034365;28;20040;-68
2022/10/02 12:49:58;;;;;;;8.20;1.55;;;;;;;;;;5040077;28;20072;-68
2022/10/02 12:52:27;;;;;;;10.32;1.90;;;;;;;;;;5041083;28;20048;-68
2022/10/02 12:54:53;;;;;;;12.32;2.03;;;;;;;;;;5040743;28;20048;-68
2022/10/02 13:00:14;;;;;;;13.27;2.05;;;;;;;;;;5049024;28;20049;-68
2022/10/02 13:02:52;;;;;;;10.50;1.80;;;;;;;;;;5044872;28;20049;-68
2022/10/02 13:05:28;;;;;;;10.60;1.88;;;;;;;;;;5043854;28;20098;-68
2022/10/02 13:08:14;;;;;;;9.82;1.50;;;;;;;;;;5042602;28;20434;-68
2022/10/02 13:10:44;;;;;;;10.63;1.83;;;;;;;;;;5049597;28;20125;-68
2022/10/02 13:13:21;;;;;;;7.22;1.33;;;;;;;;;;5044988;28;20499;-68
2022/10/02 13:15:53;;;;;;;7.50;1.80;;;;;;;;;;5044897;28;20118;-68
2022/10/02 13:18:25;;;;;;;6.72;1.85;;;;;;;;;;5046873;28;20094;-68
2022/10/02 13:21:04;;;;;;;9.27;1.77;;;;;;;;;;5044000;28;20041;-67
2022/10/02 13:23:48;;;;;;;9.85;2.38;;;;;;;;;;5041937;28;20156;-66
2022/10/02 13:26:21;;;;;;;10.18;1.98;;;;;;;;;;5043486;28;20037;-68
2022/10/02 13:28:50;;;;;;;12.10;1.98;;;;;;;;;;5044092;28;20507;-67
2022/10/02 13:31:28;;;;;;;11.07;1.95;;;;;;;;;;5043222;28;20499;-68
2022/10/02 13:34:05;;;;;;;7.78;1.80;;;;;;;;;;5043531;28;20044;-67
2022/10/02 13:36:55;;;;;;;9.95;2.13;;;;;;;;;;5050123;28;20047;-67
2022/10/02 13:39:26;;;;;;;11.32;1.67;;;;;;;;;;5049250;28;20044;-68
2022/10/02 13:42:10;;;;;;;5.95;1.50;;;;;;;;;;5048874;28;20146;-68
2022/10/02 13:44:42;;;;;;;9.18;1.65;;;;;;;;;;5046772;28;20068;-68
2022/10/02 13:47:30;;;;;;;8.15;1.58;;;;;;;;;;5049868;28;20535;-67
2022/10/02 13:50:10;;;;;;;7.75;1.70;;;;;;;;;;5008290;28;20052;-68
2022/10/02 13:52:51;;;;;;;8.02;1.52;;;;;;;;;;5048872;28;20040;-69
2022/10/02 13:55:20;;;;;;;14.30;1.90;;;;;;;;;;5045221;28;20033;-68
2022/10/02 13:58:02;;;;;;;11.43;1.70;;;;;;;;;;5047349;28;20048;-68
2022/10/02 14:00:37;;;;;;;12.98;1.92;;;;;;;;;;5046936;28;20111;-68
2022/10/02 14:03:13;;;;;;;11.02;2.10;;;;;;;;;;5043986;28;20036;-67
2022/10/02 14:05:40;;;;;;;9.27;1.95;;;;;;;;;;5033264;28;20040;-67
2022/10/02 14:08:25;;;;;;;9.93;1.67;;;;;;;;;;5045788;28;20042;-67
2022/10/02 14:11:10;;;;;;;10.27;1.70;;;;;;;;;;5028087;28;20041;-68
2022/10/02 14:13:57;;;;;;;6.70;1.58;;;;;;;;;;5043797;28;20036;-67
2022/10/02 14:16:41;;;;;;;10.35;2.28;;;;;;;;;;5049328;28;20051;-67
2022/10/02 14:19:13;;;;;;;8.63;1.65;;;;;;;;;;5041633;28;20033;-67
2022/10/02 14:21:51;;;;;;;7.60;1.60;;;;;;;;;;5046275;28;20036;-67
2022/10/02 14:24:21;;;;;;;8.35;1.50;;;;;;;;;;5074276;22;20040;-66
2022/10/02 14:27:08;;;;;;;7.45;1.70;;;;;;;;;;5071867;28;20494;-67
2022/10/02 14:29:46;;;;;;;12.00;1.75;;;;;;;;;;5064009;28;20048;-67
2022/10/02 14:32:16;;;;;;;7.07;1.73;;;;;;;;;;5069301;28;20523;-67
2022/10/02 14:34:42;;;;;;;11.82;1.42;;;;;;;;;;5071869;28;20044;-68
2022/10/02 14:37:26;;;;;;;7.75;1.55;;;;;;;;;;5072553;28;20033;-66
2022/10/02 14:39:55;;;;;;;6.97;1.70;;;;;;;;;;5071854;28;20039;-66
2022/10/02 14:42:33;;;;;;;10.63;1.77;;;;;;;;;;5070700;28;20486;-67
2022/10/02 14:45:05;;;;;;;7.75;1.65;;;;;;;;;;5054018;28;20119;-66
2022/10/02 14:47:34;;;;;;;13.25;2.42;;;;;;;;;;5072713;28;20498;-67
2022/10/02 14:50:16;;;;;;;9.75;1.90;;;;;;;;;;5069947;28;20040;-67
2022/10/02 14:52:50;;;;;;;10.60;1.88;;;;;;;;;;5072276;28;20047;-68
2022/10/02 14:55:19;;;;;;;12.70;2.38;;;;;;;;;;5067847;28;20521;-68
2022/10/02 14:58:04;;;;;;;8.38;1.98;;;;;;;;;;5070203;28;20082;-67
2022/10/02 15:00:42;;;;;;;11.75;1.90;;;;;;;;;;5065334;28;20050;-67
2022/10/02 15:03:19;;;;;;;10.75;1.90;;;;;;;;;;5075554;28;20093;-67
2022/10/02 15:06:09;;;;;;;11.25;1.88;;;;;;;;;;5067794;28;20052;-67
2022/10/02 15:08:53;;;;;;;9.02;1.75;;;;;;;;;;5081643;28;20055;-68
2022/10/02 15:11:24;;;;;;;11.05;1.80;;;;;;;;;;5070717;28;20040;-68
2022/10/02 15:13:52;;;;;;;14.35;1.80;;;;;;;;;;5074446;28;20071;-67
2022/10/02 15:19:20;;;;;;;8.85;1.60;;;;;;;;;;5072689;28;20145;-68
2022/10/02 15:21:52;;;;;;;12.15;1.98;;;;;;;;;;5067198;28;20048;-68
2022/10/02 15:24:32;;;;;;;11.98;1.83;;;;;;;;;;5071220;28;20622;-68
2022/10/02 15:27:07;;;;;;;8.20;2.03;;;;;;;;;;5065932;28;20040;-68
2022/10/02 15:29:43;;;;;;;8.95;1.70;;;;;;;;;;5061832;28;20055;-68
2022/10/02 15:32:16;;;;;;;9.93;1.83;;;;;;;;;;5072342;28;20139;-67
2022/10/02 15:34:45;;;;;;;9.35;1.70;;;;;;;;;;5072452;28;20037;-67
2022/10/02 15:37:26;;;;;;;8.68;1.70;;;;;;;;;;5067157;28;20036;-68